createdAt,value
2023-02-16T00:01:35.165Z,71.76
2023-02-16T00:04:02.164Z,71.61
2023-02-16T00:06:29.521Z,71.49
2023-02-16T00:08:57.059Z,72.63
2023-02-16T00:11:53.188Z,72.48
2023-02-16T00:14:23.464Z,72.10
2023-02-16T00:16:50.636Z,71.93
2023-02-16T00:19:23.023Z,72.11
2023-02-16T00:21:50.959Z,72.28
2023-02-16T00:24:17.597Z,72.47
2023-02-16T00:26:45.806Z,71.75
2023-02-16T00:29:17.554Z,72.14
2023-02-16T00:31:44.144Z,72.26
2023-02-16T00:34:33.126Z,71.68
2023-02-16T00:37:02.950Z,71.67
2023-02-16T00:39:29.522Z,72.44
2023-02-16T00:41:58.571Z,71.78
2023-02-16T00:44:42.184Z,72.09
2023-02-16T00:47:22.067Z,72.44
2023-02-16T00:49:51.155Z,72.11
2023-02-16T00:52:30.233Z,72.25
2023-02-16T00:54:57.873Z,71.94
2023-02-16T00:57:25.232Z,72.19
2023-02-16T00:59:58.399Z,72.33
2023-02-16T01:02:24.932Z,72.12
2023-02-16T01:04:51.496Z,71.98
2023-02-16T01:07:37.435Z,72.03
2023-02-16T01:10:24.734Z,72.36
2023-02-16T01:12:51.253Z,71.90
2023-02-16T01:15:19.132Z,71.92
2023-02-16T01:17:45.637Z,72.01
2023-02-16T01:20:20.872Z,72.02
2023-02-16T01:22:47.641Z,72.04
2023-02-16T01:25:14.785Z,72.02
2023-02-16T01:27:42.060Z,71.88
2023-02-16T01:30:15.054Z,72.19
2023-02-16T01:32:43.455Z,72.11
2023-02-16T01:35:10.421Z,72.24
2023-02-16T01:37:36.955Z,72.63
2023-02-16T01:40:04.051Z,72.29
2023-02-16T01:42:49.720Z,72.00
2023-02-16T01:45:20.188Z,72.46
2023-02-16T01:47:53.366Z,72.15
2023-02-16T01:50:23.487Z,72.48
2023-02-16T01:52:55.882Z,72.93
2023-02-16T01:55:26.086Z,72.93
2023-02-16T01:57:57.817Z,73.13
2023-02-16T02:00:54.740Z,73.81
2023-02-16T02:03:43.772Z,73.30
2023-02-16T02:06:12.670Z,73.41
2023-02-16T02:09:08.798Z,73.87
2023-02-16T02:11:41.088Z,73.99
2023-02-16T02:14:25.279Z,74.10
2023-02-16T02:17:01.701Z,74.08
2023-02-16T02:19:32.645Z,74.41
2023-02-16T02:22:43.428Z,74.21
2023-02-16T02:25:45.167Z,73.99
2023-02-16T02:28:19.094Z,74.61
2023-02-16T02:30:51.111Z,74.46
2023-02-16T02:33:30.126Z,74.48
2023-02-16T02:36:16.268Z,74.62
2023-02-16T02:39:01.724Z,74.35
2023-02-16T02:42:05.641Z,73.98
2023-02-16T02:44:48.271Z,73.93
2023-02-16T02:47:14.871Z,73.43
2023-02-16T02:49:54.690Z,73.56
2023-02-16T02:52:22.344Z,73.57
2023-02-16T02:55:08.078Z,73.49
2023-02-16T02:58:00.236Z,73.75
2023-02-16T03:00:43.745Z,73.90
2023-02-16T03:03:19.356Z,73.97
2023-02-16T03:05:50.340Z,74.65
2023-02-16T03:08:17.658Z,74.38
2023-02-16T03:11:11.570Z,74.31
2023-02-16T03:13:42.131Z,74.40
2023-02-16T03:16:13.868Z,74.68
2023-02-16T03:19:00.082Z,74.43
2023-02-16T03:21:46.362Z,74.56
2023-02-16T03:24:35.642Z,74.87
2023-02-16T03:27:21.572Z,74.83
2023-02-16T03:29:50.294Z,74.88
2023-02-16T03:32:17.182Z,74.80
2023-02-16T03:34:43.854Z,74.73
2023-02-16T03:37:10.656Z,74.10
2023-02-16T03:39:57.190Z,73.94
2023-02-16T03:42:24.369Z,74.19
2023-02-16T03:44:51.681Z,74.25
2023-02-16T03:47:18.285Z,74.32
2023-02-16T03:49:44.869Z,74.44
2023-02-16T03:52:12.338Z,74.28
2023-02-16T03:54:38.929Z,74.04
2023-02-16T03:57:05.449Z,74.52
2023-02-16T03:59:32.034Z,74.48
2023-02-16T04:01:59.385Z,74.39
2023-02-16T04:04:26.014Z,74.97
2023-02-16T04:06:52.491Z,74.53
2023-02-16T04:09:19.058Z,74.95
2023-02-16T04:12:04.109Z,74.72
2023-02-16T04:14:30.596Z,74.23
2023-02-16T04:16:57.114Z,74.48
2023-02-16T04:19:24.773Z,74.64
2023-02-16T04:21:53.044Z,74.69
2023-02-16T04:24:19.753Z,74.62
2023-02-16T04:26:46.228Z,74.62
2023-02-16T04:29:12.706Z,74.68
2023-02-16T04:31:39.382Z,74.47
2023-02-16T04:34:06.230Z,74.38
2023-02-16T04:36:34.313Z,74.22
2023-02-16T04:39:00.944Z,74.20
2023-02-16T04:41:27.508Z,74.08
2023-02-16T04:43:54.049Z,74.67
2023-02-16T04:46:20.617Z,74.74
2023-02-16T04:48:47.249Z,74.18
2023-02-16T04:51:13.730Z,74.46
2023-02-16T04:53:40.260Z,74.83
2023-02-16T04:56:10.755Z,74.42
2023-02-16T04:58:37.314Z,74.41
2023-02-16T05:01:04.249Z,74.71
2023-02-16T05:03:31.319Z,74.70
2023-02-16T05:05:57.828Z,74.44
2023-02-16T05:08:24.322Z,74.29
2023-02-16T05:11:10.790Z,74.25
2023-02-16T05:13:55.971Z,74.00
2023-02-16T05:16:23.227Z,74.41
2023-02-16T05:18:49.721Z,73.99
2023-02-16T05:21:31.349Z,74.32
2023-02-16T05:24:06.246Z,73.79
2023-02-16T05:26:33.790Z,74.15
2023-02-16T05:29:01.156Z,73.74
2023-02-16T05:31:28.552Z,73.78
2023-02-16T05:33:55.615Z,74.26
2023-02-16T05:36:22.717Z,74.29
2023-02-16T05:38:49.310Z,74.28
2023-02-16T05:41:23.516Z,74.25
2023-02-16T05:43:58.530Z,74.39
2023-02-16T05:46:26.504Z,74.61
2023-02-16T05:48:54.059Z,74.38
2023-02-16T05:51:21.342Z,74.27
2023-02-16T05:53:48.142Z,74.24
2023-02-16T05:56:14.709Z,74.35
2023-02-16T05:58:41.204Z,74.41
2023-02-16T06:01:07.790Z,74.29
2023-02-16T06:03:35.965Z,74.08
2023-02-16T06:06:04.002Z,74.25
2023-02-16T06:08:31.277Z,74.15
2023-02-16T06:10:58.039Z,74.29
2023-02-16T06:13:24.851Z,74.13
2023-02-16T06:15:53.292Z,74.43
2023-02-16T06:18:19.855Z,74.27
2023-02-16T06:20:46.407Z,74.33
2023-02-16T06:23:13.690Z,74.51
2023-02-16T06:25:50.119Z,74.09
2023-02-16T06:28:16.631Z,73.98
2023-02-16T06:30:43.157Z,74.43
2023-02-16T06:33:09.759Z,74.26
2023-02-16T06:35:36.658Z,74.34
2023-02-16T06:38:03.283Z,74.16
2023-02-16T06:40:29.830Z,74.20
2023-02-16T06:42:56.346Z,74.17
2023-02-16T06:45:22.928Z,74.39
2023-02-16T06:47:49.947Z,74.44
2023-02-16T06:50:17.682Z,74.06
2023-02-16T06:52:44.304Z,74.16
2023-02-16T06:55:11.037Z,74.36
2023-02-16T06:57:37.996Z,74.03
2023-02-16T07:00:07.703Z,74.18
2023-02-16T07:02:35.820Z,73.75
2023-02-16T07:05:03.483Z,73.85
2023-02-16T07:07:34.158Z,74.09
2023-02-16T07:10:02.769Z,73.48
2023-02-16T07:12:29.490Z,73.65
2023-02-16T07:14:56.309Z,73.34
2023-02-16T07:17:22.829Z,73.80
2023-02-16T07:19:49.356Z,73.65
2023-02-16T07:22:16.714Z,73.92
2023-02-16T07:24:43.525Z,73.38
2023-02-16T07:27:10.078Z,73.54
2023-02-16T07:29:36.612Z,72.97
2023-02-16T07:32:03.731Z,72.23
2023-02-16T07:34:30.702Z,72.34
2023-02-16T07:36:57.466Z,71.49
2023-02-16T07:39:24.204Z,71.35
2023-02-16T07:41:53.043Z,71.70
2023-02-16T07:44:19.593Z,71.48
2023-02-16T07:46:46.109Z,71.11
2023-02-16T07:49:12.645Z,70.78
2023-02-16T07:51:40.593Z,70.01
2023-02-16T07:54:07.557Z,70.31
2023-02-16T07:56:35.440Z,70.16
2023-02-16T07:59:02.945Z,69.86
2023-02-16T08:01:30.554Z,69.95
2023-02-16T08:03:57.555Z,69.74
2023-02-16T08:06:24.572Z,69.01
2023-02-16T08:08:51.392Z,68.20
2023-02-16T08:11:23.473Z,67.48
2023-02-16T08:13:50.274Z,67.08
2023-02-16T08:16:22.802Z,66.67
2023-02-16T08:18:50.855Z,66.70
2023-02-16T08:21:20.510Z,66.41
2023-02-16T08:23:52.962Z,66.48
2023-02-16T08:26:20.707Z,65.67
2023-02-16T08:28:50.017Z,65.45
2023-02-16T08:31:19.442Z,64.63
2023-02-16T08:33:47.744Z,64.43
2023-02-16T08:36:26.501Z,64.45
2023-02-16T08:38:53.766Z,64.02
2023-02-16T08:41:23.478Z,63.73
2023-02-16T08:43:52.585Z,62.34
2023-02-16T08:46:19.284Z,62.00
2023-02-16T08:48:46.003Z,61.32
2023-02-16T08:51:17.893Z,61.60
2023-02-16T08:53:46.712Z,60.23
2023-02-16T08:56:14.647Z,59.21
2023-02-16T08:58:41.454Z,58.61
2023-02-16T09:01:10.513Z,58.65
2023-02-16T09:03:38.608Z,58.53
2023-02-16T09:06:06.208Z,57.52
2023-02-16T09:08:33.567Z,57.58
2023-02-16T09:11:05.166Z,56.72
2023-02-16T09:13:38.058Z,56.02
2023-02-16T09:16:06.492Z,55.61
2023-02-16T09:18:33.522Z,55.39
2023-02-16T09:21:05.367Z,54.64
2023-02-16T09:23:33.128Z,54.14
2023-02-16T09:26:02.826Z,54.13
2023-02-16T09:28:30.800Z,53.53
2023-02-16T09:30:57.568Z,53.52
2023-02-16T09:33:24.691Z,53.11
2023-02-16T09:35:51.589Z,52.55
2023-02-16T09:38:18.681Z,51.25
2023-02-16T09:40:45.228Z,50.52
2023-02-16T09:43:45.539Z,51.36
2023-02-16T09:46:13.987Z,51.03
2023-02-16T09:48:43.430Z,50.19
2023-02-16T09:51:15.728Z,50.71
2023-02-16T09:53:43.376Z,49.61
2023-02-16T09:56:38.124Z,49.59
2023-02-16T09:59:11.670Z,48.92
2023-02-16T10:01:48.386Z,48.29
2023-02-16T10:04:47.483Z,46.42
2023-02-16T10:07:23.731Z,47.97
2023-02-16T10:09:53.535Z,47.31
2023-02-16T10:12:33.155Z,46.34
2023-02-16T10:15:16.417Z,46.45
2023-02-16T10:17:50.127Z,45.72
2023-02-16T10:20:32.734Z,45.38
2023-02-16T10:23:08.670Z,45.36
2023-02-16T10:25:46.937Z,45.64
2023-02-16T10:28:22.469Z,44.55
2023-02-16T10:30:57.871Z,44.26
2023-02-16T10:33:43.819Z,44.44
2023-02-16T10:36:27.881Z,44.25
2023-02-16T10:39:14.043Z,44.31
2023-02-16T10:41:44.725Z,44.47
2023-02-16T10:44:24.155Z,43.99
2023-02-16T10:47:04.168Z,44.21
2023-02-16T10:49:32.395Z,43.49
2023-02-16T10:52:01.492Z,42.83
2023-02-16T10:54:29.841Z,42.24
2023-02-16T10:57:07.668Z,42.55
2023-02-16T10:59:42.086Z,43.06
2023-02-16T11:02:18.946Z,40.37
2023-02-16T11:04:48.563Z,42.36
2023-02-16T11:07:17.820Z,42.08
2023-02-16T11:09:47.151Z,43.05
2023-02-16T11:12:35.961Z,41.51
2023-02-16T11:15:05.599Z,42.04
2023-02-16T11:17:33.336Z,41.89
2023-02-16T11:20:05.671Z,42.38
2023-02-16T11:22:37.540Z,42.42
2023-02-16T11:25:19.959Z,42.47
2023-02-16T11:27:57.884Z,41.42
2023-02-16T11:30:44.696Z,41.24
2023-02-16T11:33:26.977Z,41.43
2023-02-16T11:35:54.060Z,41.63
2023-02-16T11:38:31.523Z,41.10
2023-02-16T11:40:59.887Z,40.52
2023-02-16T11:43:28.488Z,40.98
2023-02-16T11:46:04.652Z,41.21
2023-02-16T11:48:33.129Z,40.47
2023-02-16T11:51:03.010Z,40.42
2023-02-16T11:53:33.126Z,40.11
2023-02-16T11:56:23.970Z,39.29
2023-02-16T11:59:17.068Z,39.66
2023-02-16T12:02:11.684Z,39.60
2023-02-16T12:04:41.286Z,39.62
2023-02-16T12:07:38.566Z,38.86
2023-02-16T12:10:21.586Z,38.89
2023-02-16T12:13:03.158Z,39.74
2023-02-16T12:15:40.300Z,39.03
2023-02-16T12:18:13.047Z,39.52
2023-02-16T12:20:55.072Z,38.89
2023-02-16T12:23:31.617Z,39.19
2023-02-16T12:26:15.007Z,38.79
2023-02-16T12:28:57.945Z,38.23
2023-02-16T12:31:39.849Z,36.79
2023-02-16T12:34:21.800Z,38.11
2023-02-16T12:36:58.648Z,37.63
2023-02-16T12:39:34.131Z,36.64
2023-02-16T12:42:19.408Z,35.79
2023-02-16T12:44:50.742Z,35.29
2023-02-16T12:47:24.528Z,35.82
2023-02-16T12:49:54.413Z,35.16
2023-02-16T12:52:44.788Z,34.65
2023-02-16T12:55:22.104Z,35.87
2023-02-16T12:57:56.126Z,35.05
2023-02-16T13:00:34.995Z,34.92
2023-02-16T13:03:16.724Z,35.67
2023-02-16T13:05:44.798Z,34.91
2023-02-16T13:08:25.720Z,34.78
2023-02-16T13:10:57.554Z,35.69
2023-02-16T13:13:27.348Z,34.30
2023-02-16T13:16:09.553Z,33.76
2023-02-16T13:18:42.745Z,34.05
2023-02-16T13:21:15.458Z,34.09
2023-02-16T13:24:10.741Z,34.03
2023-02-16T13:26:46.438Z,32.53
2023-02-16T13:29:39.080Z,31.83
2023-02-16T13:32:33.879Z,32.13
2023-02-16T13:35:12.904Z,30.78
2023-02-16T13:37:58.223Z,31.23
2023-02-16T13:40:31.087Z,31.01
2023-02-16T13:43:12.507Z,31.09
2023-02-16T13:45:41.874Z,31.31
2023-02-16T13:48:29.710Z,32.01
2023-02-16T13:51:01.245Z,32.34
2023-02-16T13:53:37.750Z,32.17
2023-02-16T13:56:12.699Z,32.16
2023-02-16T13:58:40.882Z,31.97
2023-02-16T14:01:32.443Z,33.19
2023-02-16T14:04:01.236Z,33.42
2023-02-16T14:06:29.367Z,33.41
2023-02-16T14:09:14.056Z,34.59
2023-02-16T14:12:02.258Z,35.17
2023-02-16T14:14:46.365Z,35.73
2023-02-16T14:17:19.170Z,36.24
2023-02-16T14:20:03.626Z,36.69
2023-02-16T14:22:45.427Z,36.97
2023-02-16T14:25:24.159Z,37.41
2023-02-16T14:27:55.292Z,37.31
2023-02-16T14:30:35.509Z,37.80
2023-02-16T14:33:17.448Z,38.50
2023-02-16T14:35:48.339Z,38.54
2023-02-16T14:38:30.581Z,39.04
2023-02-16T14:40:58.638Z,39.33
2023-02-16T14:43:35.310Z,39.18
2023-02-16T14:46:20.978Z,39.33
2023-02-16T14:49:03.065Z,39.54
2023-02-16T14:52:00.733Z,39.34
2023-02-16T14:54:46.267Z,39.97
2023-02-16T14:57:16.652Z,40.23
2023-02-16T14:59:53.192Z,40.58
2023-02-16T15:02:40.035Z,40.29
2023-02-16T15:05:24.211Z,40.53
2023-02-16T15:08:05.567Z,40.86
2023-02-16T15:10:32.204Z,41.34
2023-02-16T15:12:59.156Z,41.08
2023-02-16T15:15:35.156Z,41.80
2023-02-16T15:18:01.798Z,42.13
2023-02-16T15:20:37.009Z,42.36
2023-02-16T15:23:07.905Z,42.03
2023-02-16T15:25:39.220Z,42.73
2023-02-16T15:28:11.743Z,42.83
2023-02-16T15:30:46.032Z,42.54
2023-02-16T15:33:23.066Z,42.73
2023-02-16T15:35:55.355Z,43.05
2023-02-16T15:38:25.273Z,43.40
2023-02-16T15:40:54.048Z,43.53
2023-02-16T15:43:35.815Z,43.61
2023-02-16T15:46:04.604Z,44.22
2023-02-16T15:48:37.650Z,43.71
2023-02-16T15:51:11.457Z,43.95
2023-02-16T15:53:45.952Z,43.61
2023-02-16T15:56:34.056Z,44.01
2023-02-16T15:59:03.506Z,44.35
2023-02-16T16:01:35.542Z,43.96
2023-02-16T16:04:05.701Z,43.84
2023-02-16T16:06:37.706Z,44.42
2023-02-16T16:09:08.288Z,45.18
2023-02-16T16:11:36.441Z,44.57
2023-02-16T16:14:04.790Z,44.99
2023-02-16T16:16:32.393Z,45.10
2023-02-16T16:19:08.687Z,45.20
2023-02-16T16:21:39.143Z,45.35
2023-02-16T16:24:07.969Z,45.66
2023-02-16T16:26:50.975Z,46.08
2023-02-16T16:29:32.146Z,45.48
2023-02-16T16:31:58.807Z,45.76
2023-02-16T16:34:39.505Z,46.36
2023-02-16T16:37:27.779Z,45.77
2023-02-16T16:40:02.126Z,46.50
2023-02-16T16:42:28.670Z,45.47
2023-02-16T16:45:01.626Z,45.72
2023-02-16T16:47:39.435Z,46.54
2023-02-16T16:50:14.417Z,46.20
2023-02-16T16:52:43.731Z,46.25
2023-02-16T16:55:19.314Z,46.42
2023-02-16T16:57:46.604Z,46.69
2023-02-16T17:00:14.825Z,46.77
2023-02-16T17:02:41.475Z,46.82
2023-02-16T17:05:08.369Z,47.00
2023-02-16T17:07:34.982Z,47.27
2023-02-16T17:10:01.654Z,47.98
2023-02-16T17:12:28.480Z,48.26
2023-02-16T17:14:55.614Z,48.07
2023-02-16T17:17:22.165Z,48.59
2023-02-16T17:19:48.820Z,48.57
2023-02-16T17:22:17.661Z,48.22
2023-02-16T17:24:44.672Z,48.87
2023-02-16T17:27:11.425Z,49.03
2023-02-16T17:29:38.069Z,48.39
2023-02-16T17:32:05.440Z,49.46
2023-02-16T17:34:31.998Z,49.17
2023-02-16T17:37:00.167Z,49.41
2023-02-16T17:39:26.812Z,49.53
2023-02-16T17:41:53.316Z,49.54
2023-02-16T17:44:20.848Z,49.99
2023-02-16T17:46:47.502Z,49.94
2023-02-16T17:49:14.573Z,50.06
2023-02-16T17:51:41.361Z,49.52
2023-02-16T17:54:10.971Z,50.21
2023-02-16T17:56:41.704Z,50.09
2023-02-16T17:59:10.524Z,50.73
2023-02-16T18:01:37.689Z,50.27
2023-02-16T18:04:04.360Z,50.50
2023-02-16T18:06:30.888Z,50.89
2023-02-16T18:08:57.581Z,50.44
2023-02-16T18:11:24.245Z,50.95
2023-02-16T18:13:50.873Z,50.84
2023-02-16T18:16:19.150Z,50.79
2023-02-16T18:18:45.908Z,50.68
2023-02-16T18:21:12.508Z,51.17
2023-02-16T18:23:39.389Z,51.34
2023-02-16T18:26:07.131Z,51.20
2023-02-16T18:28:34.361Z,51.40
2023-02-16T18:31:01.180Z,51.16
2023-02-16T18:33:28.007Z,51.14
2023-02-16T18:35:57.465Z,51.02
2023-02-16T18:38:25.215Z,51.28
2023-02-16T18:40:53.299Z,51.36
2023-02-16T18:43:20.128Z,51.48
2023-02-16T18:45:46.705Z,51.36
2023-02-16T18:48:13.483Z,51.28
2023-02-16T18:50:39.988Z,51.37
2023-02-16T18:53:07.131Z,51.18
2023-02-16T18:55:33.949Z,51.60
2023-02-16T18:58:01.595Z,51.38
2023-02-16T19:00:28.192Z,51.51
2023-02-16T19:02:55.371Z,51.59
2023-02-16T19:05:21.992Z,51.70
2023-02-16T19:07:48.548Z,51.30
2023-02-16T19:10:15.599Z,51.48
2023-02-16T19:12:42.174Z,51.72
2023-02-16T19:15:09.129Z,51.43
2023-02-16T19:17:35.668Z,51.55
2023-02-16T19:20:02.161Z,51.43
2023-02-16T19:22:28.636Z,51.83
2023-02-16T19:24:55.236Z,52.12
2023-02-16T19:27:21.733Z,52.28
2023-02-16T19:29:48.277Z,52.37
2023-02-16T19:32:15.038Z,52.23
2023-02-16T19:34:41.530Z,51.90
2023-02-16T19:37:08.074Z,52.21
2023-02-16T19:39:35.002Z,51.82
2023-02-16T19:42:01.514Z,51.97
2023-02-16T19:44:28.073Z,51.87
2023-02-16T19:46:54.723Z,51.80
2023-02-16T19:49:21.267Z,51.79
2023-02-16T19:51:47.915Z,51.91
2023-02-16T19:54:14.976Z,51.88
2023-02-16T19:56:41.515Z,51.93
2023-02-16T19:59:08.315Z,51.78
2023-02-16T20:01:34.818Z,51.96
2023-02-16T20:04:02.777Z,52.14
2023-02-16T20:06:41.054Z,52.27
2023-02-16T20:09:07.950Z,52.34
2023-02-16T20:11:35.004Z,52.36
2023-02-16T20:14:02.023Z,52.29
2023-02-16T20:16:29.334Z,52.49
2023-02-16T20:18:57.278Z,52.04
2023-02-16T20:21:26.349Z,52.77
2023-02-16T20:23:55.962Z,52.24
2023-02-16T20:26:25.667Z,52.29
2023-02-16T20:28:52.629Z,52.37
2023-02-16T20:31:28.934Z,52.67
2023-02-16T20:33:55.814Z,52.51
2023-02-16T20:36:22.893Z,52.27
2023-02-16T20:38:50.600Z,52.47
2023-02-16T20:41:18.422Z,52.46
2023-02-16T20:43:45.361Z,52.69
2023-02-16T20:46:13.414Z,52.93
2023-02-16T20:48:40.300Z,53.00
2023-02-16T20:51:08.046Z,53.31
2023-02-16T20:53:35.259Z,53.66
2023-02-16T20:56:04.983Z,53.90
2023-02-16T20:58:32.096Z,55.13
2023-02-16T21:00:58.655Z,54.83
2023-02-16T21:03:26.102Z,54.66
2023-02-16T21:05:53.389Z,55.14
2023-02-16T21:08:20.402Z,55.23
2023-02-16T21:10:46.991Z,55.89
2023-02-16T21:13:13.522Z,55.95
2023-02-16T21:15:40.453Z,55.70
2023-02-16T21:18:06.936Z,56.08
2023-02-16T21:20:33.440Z,56.42
2023-02-16T21:23:03.396Z,56.50
2023-02-16T21:25:30.545Z,56.80
2023-02-16T21:27:57.046Z,57.13
2023-02-16T21:30:23.569Z,57.07
2023-02-16T21:32:50.533Z,57.17
2023-02-16T21:35:18.120Z,57.68
2023-02-16T21:37:44.610Z,57.58
2023-02-16T21:40:30.441Z,57.43
2023-02-16T21:42:56.985Z,57.74
2023-02-16T21:45:23.493Z,57.24
2023-02-16T21:48:09.171Z,57.80
2023-02-16T21:50:38.955Z,57.59
2023-02-16T21:53:05.842Z,57.92
2023-02-16T21:55:50.986Z,58.04
2023-02-16T21:58:17.780Z,58.10
2023-02-16T22:00:44.834Z,57.93
2023-02-16T22:03:12.495Z,58.13
2023-02-16T22:05:39.018Z,58.03
2023-02-16T22:08:06.056Z,58.20
2023-02-16T22:10:34.214Z,58.15
2023-02-16T22:13:01.059Z,58.50
2023-02-16T22:15:27.641Z,58.79
2023-02-16T22:17:54.182Z,58.60
2023-02-16T22:20:21.148Z,58.80
2023-02-16T22:22:47.943Z,58.92
2023-02-16T22:25:14.427Z,58.64
2023-02-16T22:27:41.277Z,59.42
2023-02-16T22:30:08.598Z,59.33
2023-02-16T22:32:35.104Z,59.48
2023-02-16T22:35:01.796Z,59.05
2023-02-16T22:37:28.470Z,59.67
2023-02-16T22:39:55.201Z,59.75
2023-02-16T22:42:22.476Z,59.91
2023-02-16T22:44:49.333Z,59.67
2023-02-16T22:47:16.040Z,59.83
2023-02-16T22:49:42.713Z,59.95
2023-02-16T22:52:11.310Z,60.10
2023-02-16T22:54:37.901Z,59.83
2023-02-16T22:57:04.627Z,60.00
2023-02-16T22:59:31.491Z,60.33
2023-02-16T23:01:57.991Z,60.09
2023-02-16T23:04:27.672Z,60.27
2023-02-16T23:06:54.181Z,60.40
2023-02-16T23:09:22.067Z,60.48
2023-02-16T23:11:49.400Z,60.22
2023-02-16T23:14:16.665Z,60.43
2023-02-16T23:16:47.630Z,60.25
2023-02-16T23:19:16.766Z,60.59
2023-02-16T23:21:43.457Z,60.79
2023-02-16T23:24:15.580Z,60.97
2023-02-16T23:26:42.352Z,60.90
2023-02-16T23:29:09.418Z,60.89
2023-02-16T23:31:38.252Z,60.71
2023-02-16T23:34:05.843Z,61.00
2023-02-16T23:36:33.390Z,60.72
2023-02-16T23:39:10.518Z,61.16
2023-02-16T23:41:36.999Z,61.03
2023-02-16T23:44:04.673Z,61.01
2023-02-16T23:46:31.377Z,61.22
2023-02-16T23:48:58.325Z,60.82
2023-02-16T23:51:24.937Z,61.47
2023-02-16T23:53:51.572Z,61.52
2023-02-16T23:56:20.895Z,60.97
2023-02-16T23:58:47.625Z,61.32
